D07

Faith Municipal Airport

Faith, South Dakota, USA
METAR KD07 172156Z AUTO 22008KT M06/M11 A3037 RMK AO1 SLP338 T10611106 $
Observed Flight Rules
Nov-17 @ 21:56 UTC (7 minutes ago)
Wind
220° at 8 knots
Temperatures Readings
Current -6°C / 21°F
Dewpoint -11°C / 12°F
Humidity 68%
Altimeter 30.37" Hg
Pressure 1033.8 hPa
Elevation 784
METAR KD07 172156Z AUTO 22008KT M06/M11 A3037 RMK AO1 SLP338 T10611106 $
Observed Flight Rules
Nov-17 @ 21:56 UTC
(7 minutes ago)
Wind
220° at 8 knots
Temperature Dewpoint
-6°C / 21°F -11°C / 12°F
Humidity Altimeter Pressure
68% 30.37" Hg 1033.8 hPa